Calgary, Canada
Current Conditions -  °F | °C
As of 3:00 PM on Thursday 27 Nov 2014 (Local Time) from CYYC Reporting Station
Light Snow Light Snow  
Wind Chill:   Ceiling: 1000
Heat Index: 16°   Visibility: 0.75mi
Dew Point: 12°   Wind: 16mph
Humidity: 86%   Direction: 350°N
Pressure: 29.75"   Gusts: 24mph
Location:  51.05°N, 114.06°W
Report Text: CYYC 272200Z 35014G21KT 3/4SM R35L/P6000FT/N R35R/5500VP6000FT/D R11/P6000FT/N -SN BR OVC010 M09/M11 A2975 RMK SN5SC3 CIG VRB 007-012 SLP137
Loading
Personal Weather Stations






























Interactive Weather Map New forecast layout! Learn more

10-Day Weather Forecast

Advertisements
Track Severe Weather on mobile